sensor_id;sensor_type;location;lat;lon;timestamp;pressure;altitude;pressure_sealevel;temperature;humidity
79686;BME280;69153;47.918;11.428;2023-11-19T00:00:16;95255.56;;;7.95;65.57
79686;BME280;69153;47.918;11.428;2023-11-19T00:02:42;95249.13;;;7.96;65.46
79686;BME280;69153;47.918;11.428;2023-11-19T00:05:08;95241.19;;;7.99;65.53
79686;BME280;69153;47.918;11.428;2023-11-19T00:07:38;95233.97;;;8.03;65.47
79686;BME280;69153;47.918;11.428;2023-11-19T00:10:10;95228.72;;;8.00;65.55
79686;BME280;69153;47.918;11.428;2023-11-19T00:12:41;95219.09;;;7.89;65.58
79686;BME280;69153;47.918;11.428;2023-11-19T00:15:07;95218.81;;;7.80;66.51
79686;BME280;69153;47.918;11.428;2023-11-19T00:17:43;95209.41;;;7.79;66.48
79686;BME280;69153;47.918;11.428;2023-11-19T00:20:15;95206.44;;;7.77;66.68
79686;BME280;69153;47.918;11.428;2023-11-19T00:22:41;95204.63;;;7.71;66.62
79686;BME280;69153;47.918;11.428;2023-11-19T00:25:10;95204.13;;;7.52;67.27
79686;BME280;69153;47.918;11.428;2023-11-19T00:27:36;95208.22;;;7.53;67.70
79686;BME280;69153;47.918;11.428;2023-11-19T00:30:05;95199.50;;;7.60;67.43
79686;BME280;69153;47.918;11.428;2023-11-19T00:32:34;95194.81;;;7.71;67.39
79686;BME280;69153;47.918;11.428;2023-11-19T00:35:00;95191.66;;;7.83;67.00
79686;BME280;69153;47.918;11.428;2023-11-19T00:37:25;95196.91;;;7.83;66.93
79686;BME280;69153;47.918;11.428;2023-11-19T00:39:51;95193.25;;;7.77;66.73
79686;BME280;69153;47.918;11.428;2023-11-19T00:42:17;95191.88;;;7.35;68.27
79686;BME280;69153;47.918;11.428;2023-11-19T00:44:43;95182.22;;;7.25;69.24
79686;BME280;69153;47.918;11.428;2023-11-19T00:47:08;95185.13;;;7.34;68.46
79686;BME280;69153;47.918;11.428;2023-11-19T00:49:34;95179.19;;;7.57;67.92
79686;BME280;69153;47.918;11.428;2023-11-19T00:51:59;95184.69;;;7.39;68.58
79686;BME280;69153;47.918;11.428;2023-11-19T00:54:25;95180.81;;;7.47;68.28
79686;BME280;69153;47.918;11.428;2023-11-19T00:56:54;95185.59;;;7.56;68.12
79686;BME280;69153;47.918;11.428;2023-11-19T00:59:20;95185.91;;;7.62;67.82
79686;BME280;69153;47.918;11.428;2023-11-19T01:01:46;95177.81;;;7.76;67.67
79686;BME280;69153;47.918;11.428;2023-11-19T01:04:14;95175.84;;;7.53;68.38
79686;BME280;69153;47.918;11.428;2023-11-19T01:06:40;95177.13;;;7.41;69.01
79686;BME280;69153;47.918;11.428;2023-11-19T01:09:07;95173.16;;;7.57;68.33
79686;BME280;69153;47.918;11.428;2023-11-19T01:11:34;95174.59;;;7.65;68.45
79686;BME280;69153;47.918;11.428;2023-11-19T01:14:00;95176.47;;;7.64;68.32
79686;BME280;69153;47.918;11.428;2023-11-19T01:16:26;95171.56;;;7.36;69.00
79686;BME280;69153;47.918;11.428;2023-11-19T01:18:52;95177.41;;;7.50;68.87
79686;BME280;69153;47.918;11.428;2023-11-19T01:21:18;95171.41;;;7.46;68.98
79686;BME280;69153;47.918;11.428;2023-11-19T01:23:44;95174.50;;;7.68;68.83
79686;BME280;69153;47.918;11.428;2023-11-19T01:26:10;95165.78;;;7.75;68.07
79686;BME280;69153;47.918;11.428;2023-11-19T01:28:36;95172.03;;;7.84;67.92
79686;BME280;69153;47.918;11.428;2023-11-19T01:31:02;95176.06;;;7.93;67.65
79686;BME280;69153;47.918;11.428;2023-11-19T01:33:28;95170.00;;;7.96;67.90
79686;BME280;69153;47.918;11.428;2023-11-19T01:35:54;95174.53;;;7.95;67.71
79686;BME280;69153;47.918;11.428;2023-11-19T01:38:21;95158.25;;;8.00;67.31
79686;BME280;69153;47.918;11.428;2023-11-19T01:40:46;95166.53;;;8.02;67.72
79686;BME280;69153;47.918;11.428;2023-11-19T01:43:12;95169.78;;;8.10;67.19
79686;BME280;69153;47.918;11.428;2023-11-19T01:45:39;95163.06;;;8.05;67.16
79686;BME280;69153;47.918;11.428;2023-11-19T01:48:05;95162.22;;;8.12;67.39
79686;BME280;69153;47.918;11.428;2023-11-19T01:50:33;95148.28;;;8.11;67.35
79686;BME280;69153;47.918;11.428;2023-11-19T01:52:58;95146.34;;;8.15;67.62
79686;BME280;69153;47.918;11.428;2023-11-19T01:55:26;95142.81;;;7.99;68.07
79686;BME280;69153;47.918;11.428;2023-11-19T01:57:59;95140.53;;;8.01;68.24
79686;BME280;69153;47.918;11.428;2023-11-19T02:00:25;95135.25;;;8.01;67.71
79686;BME280;69153;47.918;11.428;2023-11-19T02:02:52;95133.63;;;8.07;67.78
79686;BME280;69153;47.918;11.428;2023-11-19T02:05:18;95141.09;;;8.12;67.61
79686;BME280;69153;47.918;11.428;2023-11-19T02:07:43;95134.91;;;8.22;67.68
79686;BME280;69153;47.918;11.428;2023-11-19T02:10:09;95134.00;;;8.09;67.85
79686;BME280;69153;47.918;11.428;2023-11-19T02:12:42;95125.31;;;8.08;67.96
79686;BME280;69153;47.918;11.428;2023-11-19T02:15:10;95132.41;;;8.15;67.59
79686;BME280;69153;47.918;11.428;2023-11-19T02:17:36;95129.75;;;8.15;67.74
79686;BME280;69153;47.918;11.428;2023-11-19T02:20:05;95120.69;;;8.16;67.96
79686;BME280;69153;47.918;11.428;2023-11-19T02:22:36;95113.06;;;8.21;68.04
79686;BME280;69153;47.918;11.428;2023-11-19T02:25:07;95099.97;;;8.14;67.80
79686;BME280;69153;47.918;11.428;2023-11-19T02:27:55;95094.63;;;8.18;68.28
79686;BME280;69153;47.918;11.428;2023-11-19T02:30:22;95092.56;;;8.06;68.42
79686;BME280;69153;47.918;11.428;2023-11-19T02:32:55;95077.38;;;8.13;68.46
79686;BME280;69153;47.918;11.428;2023-11-19T02:35:23;95084.16;;;8.14;68.42
79686;BME280;69153;47.918;11.428;2023-11-19T02:37:48;95082.66;;;8.13;68.37
79686;BME280;69153;47.918;11.428;2023-11-19T02:40:14;95071.00;;;8.11;68.46
79686;BME280;69153;47.918;11.428;2023-11-19T02:42:39;95063.84;;;7.88;69.51
79686;BME280;69153;47.918;11.428;2023-11-19T02:45:05;95064.19;;;7.90;69.43
79686;BME280;69153;47.918;11.428;2023-11-19T02:47:33;95063.81;;;7.92;69.92
79686;BME280;69153;47.918;11.428;2023-11-19T02:49:59;95057.19;;;8.03;69.49
79686;BME280;69153;47.918;11.428;2023-11-19T02:52:24;95052.84;;;8.16;69.07
79686;BME280;69153;47.918;11.428;2023-11-19T02:54:50;95049.09;;;8.14;69.29
79686;BME280;69153;47.918;11.428;2023-11-19T02:57:16;95048.47;;;8.06;69.67
79686;BME280;69153;47.918;11.428;2023-11-19T02:59:44;95038.06;;;8.19;69.03
79686;BME280;69153;47.918;11.428;2023-11-19T03:02:10;95029.97;;;8.30;69.04
79686;BME280;69153;47.918;11.428;2023-11-19T03:04:38;95024.75;;;8.26;69.21
79686;BME280;69153;47.918;11.428;2023-11-19T03:07:08;95015.91;;;8.36;68.69
79686;BME280;69153;47.918;11.428;2023-11-19T03:09:33;95018.50;;;8.40;68.78
79686;BME280;69153;47.918;11.428;2023-11-19T03:12:00;95015.06;;;8.43;68.94
79686;BME280;69153;47.918;11.428;2023-11-19T03:14:26;95012.63;;;8.52;68.58
79686;BME280;69153;47.918;11.428;2023-11-19T03:16:51;95010.66;;;8.56;68.34
79686;BME280;69153;47.918;11.428;2023-11-19T03:19:17;95009.06;;;8.58;68.83
79686;BME280;69153;47.918;11.428;2023-11-19T03:21:42;95009.47;;;8.57;68.97
79686;BME280;69153;47.918;11.428;2023-11-19T03:24:09;95016.59;;;8.60;68.83
79686;BME280;69153;47.918;11.428;2023-11-19T03:26:34;95006.38;;;8.62;68.45
79686;BME280;69153;47.918;11.428;2023-11-19T03:29:00;94999.06;;;8.70;68.74
79686;BME280;69153;47.918;11.428;2023-11-19T03:31:26;95001.84;;;8.63;68.85
79686;BME280;69153;47.918;11.428;2023-11-19T03:33:51;94987.94;;;8.58;69.05
79686;BME280;69153;47.918;11.428;2023-11-19T03:36:17;94999.34;;;8.55;69.29
79686;BME280;69153;47.918;11.428;2023-11-19T03:38:43;95004.06;;;8.64;69.36
79686;BME280;69153;47.918;11.428;2023-11-19T03:41:15;95014.16;;;8.69;68.99
79686;BME280;69153;47.918;11.428;2023-11-19T03:43:42;95004.59;;;8.75;69.30
79686;BME280;69153;47.918;11.428;2023-11-19T03:46:20;95004.25;;;8.73;69.16
79686;BME280;69153;47.918;11.428;2023-11-19T03:48:49;94994.72;;;8.79;69.38
79686;BME280;69153;47.918;11.428;2023-11-19T03:51:15;95001.38;;;8.68;70.29
79686;BME280;69153;47.918;11.428;2023-11-19T03:53:42;95000.97;;;8.69;70.59
79686;BME280;69153;47.918;11.428;2023-11-19T03:56:08;94994.47;;;8.54;71.92
79686;BME280;69153;47.918;11.428;2023-11-19T03:58:35;94988.28;;;8.60;72.86
79686;BME280;69153;47.918;11.428;2023-11-19T04:01:01;94986.63;;;8.50;74.09
79686;BME280;69153;47.918;11.428;2023-11-19T04:03:26;94981.91;;;8.58;74.42
79686;BME280;69153;47.918;11.428;2023-11-19T04:05:52;94994.81;;;8.92;73.45
79686;BME280;69153;47.918;11.428;2023-11-19T04:08:17;95005.59;;;9.17;71.97
79686;BME280;69153;47.918;11.428;2023-11-19T04:10:43;95006.72;;;9.00;72.52
79686;BME280;69153;47.918;11.428;2023-11-19T04:13:08;95003.94;;;9.23;74.13
79686;BME280;69153;47.918;11.428;2023-11-19T04:15:35;95014.53;;;9.40;73.26
79686;BME280;69153;47.918;11.428;2023-11-19T04:18:00;95012.97;;;9.42;73.44
79686;BME280;69153;47.918;11.428;2023-11-19T04:20:26;95011.22;;;9.36;75.73
79686;BME280;69153;47.918;11.428;2023-11-19T04:22:51;95001.34;;;9.56;75.21
79686;BME280;69153;47.918;11.428;2023-11-19T04:25:17;94995.47;;;9.64;75.59
79686;BME280;69153;47.918;11.428;2023-11-19T04:27:44;95006.44;;;9.79;76.29
79686;BME280;69153;47.918;11.428;2023-11-19T04:30:10;95002.56;;;9.67;78.66
79686;BME280;69153;47.918;11.428;2023-11-19T04:32:36;95001.25;;;9.59;79.77
79686;BME280;69153;47.918;11.428;2023-11-19T04:35:02;95011.41;;;9.93;78.00
79686;BME280;69153;47.918;11.428;2023-11-19T04:37:28;95009.97;;;9.89;78.76
79686;BME280;69153;47.918;11.428;2023-11-19T04:39:53;95004.00;;;10.01;78.87
79686;BME280;69153;47.918;11.428;2023-11-19T04:42:19;95015.59;;;10.07;78.95
79686;BME280;69153;47.918;11.428;2023-11-19T04:44:45;95012.19;;;10.23;78.70
79686;BME280;69153;47.918;11.428;2023-11-19T04:47:10;95021.44;;;10.15;79.62
79686;BME280;69153;47.918;11.428;2023-11-19T04:49:42;95020.97;;;10.20;79.33
79686;BME280;69153;47.918;11.428;2023-11-19T04:52:11;95012.25;;;10.35;79.31
79686;BME280;69153;47.918;11.428;2023-11-19T04:54:43;95021.81;;;10.46;78.61
79686;BME280;69153;47.918;11.428;2023-11-19T04:57:10;95024.44;;;10.74;77.14
79686;BME280;69153;47.918;11.428;2023-11-19T04:59:38;95034.72;;;10.72;77.35
79686;BME280;69153;47.918;11.428;2023-11-19T05:02:04;95031.75;;;10.83;77.06
79686;BME280;69153;47.918;11.428;2023-11-19T05:04:30;95029.44;;;10.85;76.31
79686;BME280;69153;47.918;11.428;2023-11-19T05:06:56;95021.06;;;10.87;77.13
79686;BME280;69153;47.918;11.428;2023-11-19T05:09:21;95026.81;;;10.98;76.31
79686;BME280;69153;47.918;11.428;2023-11-19T05:11:46;95032.44;;;11.00;76.15
79686;BME280;69153;47.918;11.428;2023-11-19T05:14:12;95030.94;;;10.99;76.53
79686;BME280;69153;47.918;11.428;2023-11-19T05:16:40;95027.25;;;10.67;78.24
79686;BME280;69153;47.918;11.428;2023-11-19T05:19:07;95037.59;;;10.91;76.71
79686;BME280;69153;47.918;11.428;2023-11-19T05:21:33;95037.69;;;10.74;77.47
79686;BME280;69153;47.918;11.428;2023-11-19T05:23:59;95045.09;;;10.80;77.54
79686;BME280;69153;47.918;11.428;2023-11-19T05:26:25;95041.22;;;10.97;76.75
79686;BME280;69153;47.918;11.428;2023-11-19T05:28:51;95040.09;;;10.69;77.98
79686;BME280;69153;47.918;11.428;2023-11-19T05:31:18;95044.69;;;10.81;77.62
79686;BME280;69153;47.918;11.428;2023-11-19T05:33:43;95050.91;;;11.03;76.74
79686;BME280;69153;47.918;11.428;2023-11-19T05:36:11;95048.25;;;11.16;75.84
79686;BME280;69153;47.918;11.428;2023-11-19T05:38:38;95048.53;;;10.93;77.08
79686;BME280;69153;47.918;11.428;2023-11-19T05:41:04;95043.22;;;10.93;77.02
79686;BME280;69153;47.918;11.428;2023-11-19T05:43:30;95050.44;;;10.92;77.01
79686;BME280;69153;47.918;11.428;2023-11-19T05:45:56;95054.91;;;11.08;76.49
79686;BME280;69153;47.918;11.428;2023-11-19T05:48:21;95054.19;;;11.20;75.24
79686;BME280;69153;47.918;11.428;2023-11-19T05:50:48;95054.00;;;11.27;75.17
79686;BME280;69153;47.918;11.428;2023-11-19T05:53:15;95057.25;;;11.19;75.42
79686;BME280;69153;47.918;11.428;2023-11-19T05:55:41;95059.28;;;11.15;75.40
79686;BME280;69153;47.918;11.428;2023-11-19T05:58:14;95065.94;;;11.06;76.02
79686;BME280;69153;47.918;11.428;2023-11-19T06:00:40;95050.81;;;10.78;77.65
79686;BME280;69153;47.918;11.428;2023-11-19T06:03:06;95068.44;;;10.85;77.48
79686;BME280;69153;47.918;11.428;2023-11-19T06:05:32;95074.84;;;11.00;77.04
79686;BME280;69153;47.918;11.428;2023-11-19T06:07:58;95063.53;;;11.12;76.47
79686;BME280;69153;47.918;11.428;2023-11-19T06:10:23;95069.56;;;11.13;76.18
79686;BME280;69153;47.918;11.428;2023-11-19T06:12:55;95068.72;;;11.16;75.92
79686;BME280;69153;47.918;11.428;2023-11-19T06:15:22;95065.97;;;11.19;76.06
79686;BME280;69153;47.918;11.428;2023-11-19T06:17:48;95072.53;;;11.02;76.96
79686;BME280;69153;47.918;11.428;2023-11-19T06:20:13;95077.50;;;11.00;77.13
79686;BME280;69153;47.918;11.428;2023-11-19T06:22:39;95079.09;;;11.10;76.82
79686;BME280;69153;47.918;11.428;2023-11-19T06:25:07;95076.03;;;11.12;76.42
79686;BME280;69153;47.918;11.428;2023-11-19T06:27:33;95075.31;;;11.24;76.21
79686;BME280;69153;47.918;11.428;2023-11-19T06:29:59;95080.94;;;11.26;75.95
79686;BME280;69153;47.918;11.428;2023-11-19T06:32:25;95072.03;;;11.32;75.61
79686;BME280;69153;47.918;11.428;2023-11-19T06:34:50;95078.16;;;11.17;76.19
79686;BME280;69153;47.918;11.428;2023-11-19T06:37:16;95084.81;;;11.08;76.73
79686;BME280;69153;47.918;11.428;2023-11-19T06:39:41;95069.59;;;11.25;76.10
79686;BME280;69153;47.918;11.428;2023-11-19T06:42:07;95069.88;;;11.02;76.77
79686;BME280;69153;47.918;11.428;2023-11-19T06:44:32;95069.25;;;11.10;76.80
79686;BME280;69153;47.918;11.428;2023-11-19T06:46:58;95078.81;;;11.21;76.13
79686;BME280;69153;47.918;11.428;2023-11-19T06:49:23;95080.81;;;11.17;76.17
79686;BME280;69153;47.918;11.428;2023-11-19T06:51:49;95091.94;;;11.12;76.20
79686;BME280;69153;47.918;11.428;2023-11-19T06:54:15;95082.91;;;10.96;77.30
79686;BME280;69153;47.918;11.428;2023-11-19T06:56:41;95074.81;;;10.87;77.77
79686;BME280;69153;47.918;11.428;2023-11-19T06:59:07;95081.97;;;11.03;77.13
79686;BME280;69153;47.918;11.428;2023-11-19T07:01:36;95083.56;;;11.00;76.83
79686;BME280;69153;47.918;11.428;2023-11-19T07:04:02;95085.16;;;11.10;76.46
79686;BME280;69153;47.918;11.428;2023-11-19T07:06:33;95098.75;;;11.25;76.05
79686;BME280;69153;47.918;11.428;2023-11-19T07:08:59;95098.72;;;11.00;76.86
79686;BME280;69153;47.918;11.428;2023-11-19T07:11:27;95091.41;;;11.17;76.31
79686;BME280;69153;47.918;11.428;2023-11-19T07:13:53;95106.19;;;11.30;75.66
79686;BME280;69153;47.918;11.428;2023-11-19T07:16:19;95108.81;;;11.30;75.61
79686;BME280;69153;47.918;11.428;2023-11-19T07:18:46;95110.44;;;11.28;75.78
79686;BME280;69153;47.918;11.428;2023-11-19T07:21:15;95107.38;;;11.29;75.62
79686;BME280;69153;47.918;11.428;2023-11-19T07:23:41;95124.16;;;11.52;74.63
79686;BME280;69153;47.918;11.428;2023-11-19T07:26:07;95123.09;;;11.49;74.75
79686;BME280;69153;47.918;11.428;2023-11-19T07:28:34;95123.72;;;11.53;74.17
79686;BME280;69153;47.918;11.428;2023-11-19T07:31:00;95134.44;;;11.50;74.17
79686;BME280;69153;47.918;11.428;2023-11-19T07:33:25;95137.06;;;11.37;75.02
79686;BME280;69153;47.918;11.428;2023-11-19T07:35:51;95136.84;;;11.31;75.08
79686;BME280;69153;47.918;11.428;2023-11-19T07:38:17;95130.88;;;11.15;75.83
79686;BME280;69153;47.918;11.428;2023-11-19T07:40:44;95135.13;;;11.12;76.32
79686;BME280;69153;47.918;11.428;2023-11-19T07:43:09;95139.19;;;11.29;75.58
79686;BME280;69153;47.918;11.428;2023-11-19T07:45:35;95143.44;;;11.27;75.46
79686;BME280;69153;47.918;11.428;2023-11-19T07:48:01;95139.69;;;11.24;75.38
79686;BME280;69153;47.918;11.428;2023-11-19T07:50:26;95143.34;;;11.56;74.52
79686;BME280;69153;47.918;11.428;2023-11-19T07:52:53;95138.38;;;11.58;74.20
79686;BME280;69153;47.918;11.428;2023-11-19T07:55:18;95138.88;;;11.40;74.57
79686;BME280;69153;47.918;11.428;2023-11-19T07:57:44;95142.84;;;11.61;73.92
79686;BME280;69153;47.918;11.428;2023-11-19T08:00:11;95143.66;;;11.58;73.99
79686;BME280;69153;47.918;11.428;2023-11-19T08:02:38;95140.41;;;11.54;74.15
79686;BME280;69153;47.918;11.428;2023-11-19T08:05:04;95136.25;;;11.53;74.61
79686;BME280;69153;47.918;11.428;2023-11-19T08:07:29;95138.28;;;11.61;74.13
79686;BME280;69153;47.918;11.428;2023-11-19T08:09:55;95143.69;;;11.70;73.97
79686;BME280;69153;47.918;11.428;2023-11-19T08:12:20;95135.84;;;11.67;73.88
79686;BME280;69153;47.918;11.428;2023-11-19T08:14:47;95134.13;;;11.73;73.70
79686;BME280;69153;47.918;11.428;2023-11-19T08:17:12;95134.72;;;11.80;73.62
79686;BME280;69153;47.918;11.428;2023-11-19T08:19:39;95124.50;;;11.79;73.48
79686;BME280;69153;47.918;11.428;2023-11-19T08:22:05;95141.34;;;11.72;73.66
79686;BME280;69153;47.918;11.428;2023-11-19T08:24:30;95137.09;;;11.75;73.94
79686;BME280;69153;47.918;11.428;2023-11-19T08:26:56;95139.66;;;11.66;74.13
79686;BME280;69153;47.918;11.428;2023-11-19T08:29:21;95129.38;;;11.55;74.28
79686;BME280;69153;47.918;11.428;2023-11-19T08:31:47;95139.44;;;11.73;74.15
79686;BME280;69153;47.918;11.428;2023-11-19T08:34:12;95139.03;;;11.74;73.99
79686;BME280;69153;47.918;11.428;2023-11-19T08:36:38;95138.22;;;11.77;73.69
79686;BME280;69153;47.918;11.428;2023-11-19T08:39:03;95146.44;;;11.54;74.67
79686;BME280;69153;47.918;11.428;2023-11-19T08:41:30;95153.44;;;11.48;75.08
79686;BME280;69153;47.918;11.428;2023-11-19T08:43:56;95153.34;;;11.52;75.16
79686;BME280;69153;47.918;11.428;2023-11-19T08:46:21;95157.59;;;11.62;74.31
79686;BME280;69153;47.918;11.428;2023-11-19T08:48:47;95156.09;;;11.73;73.99
79686;BME280;69153;47.918;11.428;2023-11-19T08:51:12;95151.44;;;11.65;74.61
79686;BME280;69153;47.918;11.428;2023-11-19T08:53:38;95149.16;;;11.79;73.99
79686;BME280;69153;47.918;11.428;2023-11-19T08:56:03;95150.94;;;11.82;73.81
79686;BME280;69153;47.918;11.428;2023-11-19T08:58:29;95156.13;;;11.86;73.58
79686;BME280;69153;47.918;11.428;2023-11-19T09:00:55;95150.72;;;11.77;74.63
79686;BME280;69153;47.918;11.428;2023-11-19T09:03:21;95138.84;;;11.94;74.42
79686;BME280;69153;47.918;11.428;2023-11-19T09:05:46;95137.34;;;12.06;73.79
79686;BME280;69153;47.918;11.428;2023-11-19T09:08:12;95137.53;;;12.24;72.95
79686;BME280;69153;47.918;11.428;2023-11-19T09:10:37;95132.81;;;12.41;72.15
79686;BME280;69153;47.918;11.428;2023-11-19T09:13:04;95143.53;;;12.50;72.20
79686;BME280;69153;47.918;11.428;2023-11-19T09:15:30;95146.09;;;12.41;72.30
79686;BME280;69153;47.918;11.428;2023-11-19T09:17:55;95144.50;;;12.43;72.09
79686;BME280;69153;47.918;11.428;2023-11-19T09:20:21;95143.66;;;12.34;72.79
79686;BME280;69153;47.918;11.428;2023-11-19T09:22:47;95160.69;;;12.24;73.68
79686;BME280;69153;47.918;11.428;2023-11-19T09:25:12;95144.22;;;12.29;73.77
79686;BME280;69153;47.918;11.428;2023-11-19T09:27:42;95154.41;;;12.43;73.45
79686;BME280;69153;47.918;11.428;2023-11-19T09:30:08;95152.50;;;12.31;73.84
79686;BME280;69153;47.918;11.428;2023-11-19T09:32:33;95148.47;;;12.13;74.19
79686;BME280;69153;47.918;11.428;2023-11-19T09:35:00;95152.63;;;12.02;74.86
79686;BME280;69153;47.918;11.428;2023-11-19T09:37:30;95154.00;;;12.19;74.30
79686;BME280;69153;47.918;11.428;2023-11-19T09:39:56;95153.78;;;12.13;73.81
79686;BME280;69153;47.918;11.428;2023-11-19T09:42:23;95164.75;;;12.15;73.12
79686;BME280;69153;47.918;11.428;2023-11-19T09:44:49;95149.25;;;12.01;74.29
79686;BME280;69153;47.918;11.428;2023-11-19T09:47:17;95141.59;;;12.16;73.53
79686;BME280;69153;47.918;11.428;2023-11-19T09:49:44;95144.13;;;12.32;73.13
79686;BME280;69153;47.918;11.428;2023-11-19T09:52:09;95134.94;;;12.46;72.21
79686;BME280;69153;47.918;11.428;2023-11-19T09:54:35;95136.84;;;12.45;72.02
79686;BME280;69153;47.918;11.428;2023-11-19T09:57:02;95150.16;;;12.45;72.28
79686;BME280;69153;47.918;11.428;2023-11-19T09:59:31;95136.00;;;12.36;72.25
79686;BME280;69153;47.918;11.428;2023-11-19T10:01:57;95129.78;;;12.17;73.24
79686;BME280;69153;47.918;11.428;2023-11-19T10:04:23;95131.34;;;12.27;72.74
79686;BME280;69153;47.918;11.428;2023-11-19T10:06:52;95140.47;;;12.39;72.86
79686;BME280;69153;47.918;11.428;2023-11-19T10:09:18;95140.66;;;12.57;72.33
79686;BME280;69153;47.918;11.428;2023-11-19T10:11:44;95130.56;;;12.52;72.51
79686;BME280;69153;47.918;11.428;2023-11-19T10:14:09;95134.50;;;12.47;73.06
79686;BME280;69153;47.918;11.428;2023-11-19T10:16:35;95129.75;;;12.30;72.98
79686;BME280;69153;47.918;11.428;2023-11-19T10:19:00;95133.66;;;12.38;72.98
79686;BME280;69153;47.918;11.428;2023-11-19T10:21:26;95133.16;;;12.30;73.44
79686;BME280;69153;47.918;11.428;2023-11-19T10:23:57;95130.63;;;12.27;72.99
79686;BME280;69153;47.918;11.428;2023-11-19T10:26:26;95126.56;;;12.22;73.51
79686;BME280;69153;47.918;11.428;2023-11-19T10:28:52;95134.75;;;12.28;73.34
79686;BME280;69153;47.918;11.428;2023-11-19T10:31:19;95131.56;;;12.33;72.90
79686;BME280;69153;47.918;11.428;2023-11-19T10:33:50;95114.88;;;12.32;72.96
79686;BME280;69153;47.918;11.428;2023-11-19T10:36:16;95125.16;;;12.43;72.71
79686;BME280;69153;47.918;11.428;2023-11-19T10:38:54;95118.59;;;12.69;71.72
79686;BME280;69153;47.918;11.428;2023-11-19T10:41:30;95114.25;;;12.63;71.66
79686;BME280;69153;47.918;11.428;2023-11-19T10:43:56;95113.41;;;12.66;71.67
79686;BME280;69153;47.918;11.428;2023-11-19T10:46:21;95125.56;;;12.54;71.78
79686;BME280;69153;47.918;11.428;2023-11-19T10:48:49;95128.56;;;12.43;72.15
79686;BME280;69153;47.918;11.428;2023-11-19T10:51:18;95113.72;;;12.68;71.93
79686;BME280;69153;47.918;11.428;2023-11-19T10:53:49;95115.41;;;12.96;70.51
79686;BME280;69153;47.918;11.428;2023-11-19T10:56:16;95107.84;;;12.95;70.15
79686;BME280;69153;47.918;11.428;2023-11-19T10:58:45;95112.06;;;13.05;70.13
79686;BME280;69153;47.918;11.428;2023-11-19T11:01:18;95104.56;;;12.91;70.27
79686;BME280;69153;47.918;11.428;2023-11-19T11:03:45;95086.88;;;12.97;70.39
79686;BME280;69153;47.918;11.428;2023-11-19T11:06:12;95097.03;;;12.89;70.54
79686;BME280;69153;47.918;11.428;2023-11-19T11:08:39;95082.47;;;13.24;69.11
79686;BME280;69153;47.918;11.428;2023-11-19T11:11:05;95088.88;;;14.16;66.83
79686;BME280;69153;47.918;11.428;2023-11-19T11:13:33;95075.75;;;15.04;63.47
79686;BME280;69153;47.918;11.428;2023-11-19T11:15:59;95094.13;;;15.62;61.06
79686;BME280;69153;47.918;11.428;2023-11-19T11:18:25;95088.38;;;15.88;60.54
79686;BME280;69153;47.918;11.428;2023-11-19T11:21:05;95071.56;;;15.63;60.34
79686;BME280;69153;47.918;11.428;2023-11-19T11:26:57;95075.28;;;15.06;62.02
79686;BME280;69153;47.918;11.428;2023-11-19T11:35:26;95070.88;;;16.11;59.47
79686;BME280;69153;47.918;11.428;2023-11-19T11:38:07;95071.41;;;17.15;55.69
79686;BME280;69153;47.918;11.428;2023-11-19T11:40:33;95060.69;;;16.71;56.79
79686;BME280;69153;47.918;11.428;2023-11-19T11:42:58;95077.88;;;16.56;56.78
79686;BME280;69153;47.918;11.428;2023-11-19T11:45:38;95055.13;;;16.36;57.26
79686;BME280;69153;47.918;11.428;2023-11-19T11:48:12;95051.44;;;16.10;57.23
79686;BME280;69153;47.918;11.428;2023-11-19T11:50:53;95034.41;;;16.07;57.57
79686;BME280;69153;47.918;11.428;2023-11-19T11:53:21;95036.88;;;15.87;57.99
79686;BME280;69153;47.918;11.428;2023-11-19T11:58:17;95039.69;;;15.51;59.14
79686;BME280;69153;47.918;11.428;2023-11-19T12:00:42;95038.78;;;15.96;58.73
79686;BME280;69153;47.918;11.428;2023-11-19T12:03:09;95041.72;;;16.60;55.99
79686;BME280;69153;47.918;11.428;2023-11-19T12:05:41;95039.34;;;16.62;56.02
79686;BME280;69153;47.918;11.428;2023-11-19T12:08:09;95027.00;;;16.65;55.85
79686;BME280;69153;47.918;11.428;2023-11-19T12:10:45;95036.94;;;16.26;56.63
79686;BME280;69153;47.918;11.428;2023-11-19T12:13:13;95048.59;;;15.90;56.90
79686;BME280;69153;47.918;11.428;2023-11-19T12:18:29;95046.28;;;15.73;57.71
79686;BME280;69153;47.918;11.428;2023-11-19T12:20:56;95044.47;;;15.47;58.50
79686;BME280;69153;47.918;11.428;2023-11-19T12:23:23;95052.66;;;15.34;58.56
79686;BME280;69153;47.918;11.428;2023-11-19T12:25:49;95046.16;;;15.26;58.81
79686;BME280;69153;47.918;11.428;2023-11-19T12:28:15;95032.91;;;14.80;60.80
79686;BME280;69153;47.918;11.428;2023-11-19T12:30:45;95041.13;;;14.49;61.29
79686;BME280;69153;47.918;11.428;2023-11-19T12:33:12;95041.81;;;14.22;62.41
79686;BME280;69153;47.918;11.428;2023-11-19T12:35:44;95027.31;;;14.32;62.54
79686;BME280;69153;47.918;11.428;2023-11-19T12:38:22;95024.78;;;14.29;62.18
79686;BME280;69153;47.918;11.428;2023-11-19T12:41:02;95036.03;;;14.24;62.79
79686;BME280;69153;47.918;11.428;2023-11-19T12:43:28;95038.09;;;14.02;63.10
79686;BME280;69153;47.918;11.428;2023-11-19T12:45:53;95037.22;;;14.14;63.06
79686;BME280;69153;47.918;11.428;2023-11-19T12:48:19;95039.41;;;13.88;64.07
79686;BME280;69153;47.918;11.428;2023-11-19T12:50:54;95041.22;;;14.09;63.41
79686;BME280;69153;47.918;11.428;2023-11-19T12:53:21;95032.78;;;14.20;62.92
79686;BME280;69153;47.918;11.428;2023-11-19T12:55:47;95023.75;;;14.36;62.33
79686;BME280;69153;47.918;11.428;2023-11-19T12:58:33;95020.63;;;14.19;62.88
79686;BME280;69153;47.918;11.428;2023-11-19T13:01:06;95009.38;;;14.06;63.84
79686;BME280;69153;47.918;11.428;2023-11-19T13:03:33;95007.34;;;14.28;62.99
79686;BME280;69153;47.918;11.428;2023-11-19T13:06:06;95001.69;;;13.99;63.75